createdAt,value
2022-11-27T00:02:57.515Z,5.00
2022-11-27T00:06:03.425Z,4.82
2022-11-27T00:09:14.546Z,4.81
2022-11-27T00:12:20.319Z,4.80
2022-11-27T00:15:25.570Z,4.94
2022-11-27T00:18:31.370Z,4.89
2022-11-27T00:21:38.477Z,4.85
2022-11-27T00:24:44.765Z,4.61
2022-11-27T00:27:50.221Z,4.57
2022-11-27T00:31:03.213Z,4.46
2022-11-27T00:34:09.251Z,4.53
2022-11-27T00:37:15.851Z,4.41
2022-11-27T00:40:20.938Z,4.59
2022-11-27T00:43:26.441Z,4.31
2022-11-27T00:46:34.398Z,3.90
2022-11-27T00:49:40.106Z,4.29
2022-11-27T00:52:46.122Z,4.23
2022-11-27T00:55:51.978Z,4.39
2022-11-27T00:58:58.756Z,4.70
2022-11-27T01:02:04.144Z,4.83
2022-11-27T01:05:09.851Z,4.93
2022-11-27T01:08:15.680Z,5.07
2022-11-27T01:11:27.425Z,5.15
2022-11-27T01:14:33.184Z,5.19
2022-11-27T01:17:38.467Z,5.21
2022-11-27T01:20:43.948Z,5.10
2022-11-27T01:23:50.516Z,5.07
2022-11-27T01:26:56.171Z,5.19
2022-11-27T01:30:02.261Z,5.20
2022-11-27T01:33:07.864Z,4.89
2022-11-27T01:36:15.811Z,4.82
2022-11-27T01:39:24.527Z,4.80
2022-11-27T01:42:30.330Z,4.35
2022-11-27T01:45:36.126Z,4.50
2022-11-27T01:48:41.965Z,4.64
2022-11-27T01:52:05.545Z,4.53
2022-11-27T01:55:20.859Z,4.50
2022-11-27T01:58:30.664Z,4.52
2022-11-27T02:01:36.180Z,4.52
2022-11-27T02:04:42.622Z,4.49
2022-11-27T02:07:49.206Z,4.61
2022-11-27T02:11:17.539Z,4.08
2022-11-27T02:14:50.835Z,4.36
2022-11-27T02:18:14.708Z,4.27
2022-11-27T02:22:05.507Z,4.37
2022-11-27T02:25:28.481Z,4.39
2022-11-27T02:28:52.426Z,4.37
2022-11-27T02:32:25.066Z,4.20
2022-11-27T02:35:46.051Z,4.35
2022-11-27T02:38:56.576Z,4.50
2022-11-27T02:42:22.805Z,4.51
2022-11-27T02:45:43.299Z,4.31
2022-11-27T02:48:55.570Z,4.26
2022-11-27T02:52:02.937Z,4.35
2022-11-27T02:55:14.804Z,4.36
2022-11-27T02:58:23.939Z,4.35
2022-11-27T03:01:35.490Z,4.09
2022-11-27T03:04:52.616Z,4.02
2022-11-27T03:08:05.604Z,4.12
2022-11-27T03:11:14.729Z,4.09
2022-11-27T03:14:25.543Z,3.99
2022-11-27T03:17:58.089Z,3.93
2022-11-27T03:21:14.444Z,4.09
2022-11-27T03:24:20.240Z,4.00
2022-11-27T03:27:33.829Z,3.88
2022-11-27T03:30:41.559Z,3.74
2022-11-27T03:33:48.079Z,3.72
2022-11-27T03:36:53.533Z,3.60
2022-11-27T03:39:59.241Z,3.61
2022-11-27T03:43:14.626Z,3.56
2022-11-27T03:46:51.204Z,3.45
2022-11-27T03:50:06.507Z,3.48
2022-11-27T03:53:51.749Z,3.47
2022-11-27T03:57:11.680Z,3.57
2022-11-27T04:00:18.072Z,3.62
2022-11-27T04:03:27.643Z,3.56
2022-11-27T04:06:33.471Z,3.26
2022-11-27T04:09:39.382Z,3.33
2022-11-27T04:12:45.108Z,3.35
2022-11-27T04:15:51.339Z,3.25
2022-11-27T04:18:56.929Z,3.19
2022-11-27T04:22:02.798Z,3.22
2022-11-27T04:25:08.609Z,3.17
2022-11-27T04:28:14.253Z,3.07
2022-11-27T04:31:20.066Z,3.02
2022-11-27T04:34:26.002Z,2.96
2022-11-27T04:37:31.768Z,2.76
2022-11-27T04:40:37.906Z,2.36
2022-11-27T04:43:43.331Z,2.79
2022-11-27T04:46:50.375Z,2.85
2022-11-27T04:49:56.142Z,2.93
2022-11-27T04:53:02.310Z,2.97
2022-11-27T04:56:08.222Z,3.03
2022-11-27T04:59:13.619Z,2.84
2022-11-27T05:02:19.249Z,2.89
2022-11-27T05:05:25.184Z,2.98
2022-11-27T05:08:33.821Z,3.02
2022-11-27T05:11:39.788Z,3.06
2022-11-27T05:14:45.898Z,2.61
2022-11-27T05:17:51.981Z,2.32
2022-11-27T05:21:00.188Z,2.93
2022-11-27T05:24:07.337Z,2.97
2022-11-27T05:27:12.967Z,2.99
2022-11-27T05:30:19.135Z,2.96
2022-11-27T05:33:24.915Z,3.05
2022-11-27T05:36:31.781Z,3.02
2022-11-27T05:39:37.272Z,3.01
2022-11-27T05:42:42.966Z,2.94
2022-11-27T05:45:48.691Z,3.03
2022-11-27T05:48:54.404Z,2.96
2022-11-27T05:52:00.078Z,2.96
2022-11-27T05:55:06.711Z,3.08
2022-11-27T05:58:12.087Z,3.06
2022-11-27T06:01:19.218Z,2.88
2022-11-27T06:04:24.416Z,2.95
2022-11-27T06:07:32.366Z,2.96
2022-11-27T06:10:40.132Z,2.99
2022-11-27T06:13:46.449Z,2.92
2022-11-27T06:16:51.783Z,2.95
2022-11-27T06:19:58.293Z,2.88
2022-11-27T06:23:03.711Z,2.96
2022-11-27T06:26:19.162Z,2.88
2022-11-27T06:29:24.888Z,2.84
2022-11-27T06:32:30.886Z,2.84
2022-11-27T06:35:36.799Z,2.90
2022-11-27T06:38:42.591Z,2.95
2022-11-27T06:41:47.826Z,2.91
2022-11-27T06:44:53.689Z,3.01
2022-11-27T06:47:59.328Z,2.97
2022-11-27T06:51:07.675Z,2.85
2022-11-27T06:54:13.312Z,2.95
2022-11-27T06:57:18.822Z,3.04
2022-11-27T07:00:24.313Z,3.17
2022-11-27T07:03:33.493Z,3.24
2022-11-27T07:06:40.278Z,3.20
2022-11-27T07:09:45.453Z,3.28
2022-11-27T07:12:50.735Z,3.27
2022-11-27T07:15:56.692Z,3.26
2022-11-27T07:19:07.785Z,3.24
2022-11-27T07:22:13.289Z,3.40
2022-11-27T07:25:19.109Z,3.50
2022-11-27T07:28:25.279Z,3.55
2022-11-27T07:31:31.794Z,3.55
2022-11-27T07:34:38.022Z,3.43
2022-11-27T07:37:44.136Z,3.48
2022-11-27T07:40:53.733Z,3.63
2022-11-27T07:44:02.284Z,3.64
2022-11-27T07:47:07.698Z,3.85
2022-11-27T07:50:13.138Z,3.98
2022-11-27T07:53:18.770Z,4.12
2022-11-27T07:56:26.845Z,4.10
2022-11-27T07:59:32.287Z,4.16
2022-11-27T08:02:37.779Z,4.15
2022-11-27T08:05:43.566Z,4.34
2022-11-27T08:08:49.711Z,4.37
2022-11-27T08:11:55.198Z,4.52
2022-11-27T08:15:01.209Z,4.67
2022-11-27T08:18:07.207Z,4.75
2022-11-27T08:21:13.168Z,4.94
2022-11-27T08:24:18.550Z,4.87
2022-11-27T08:27:24.929Z,5.13
2022-11-27T08:30:30.096Z,5.27
2022-11-27T08:33:36.911Z,5.19
2022-11-27T08:36:42.802Z,5.24
2022-11-27T08:39:49.173Z,5.32
2022-11-27T08:42:55.219Z,5.63
2022-11-27T08:46:05.471Z,5.81
2022-11-27T08:49:11.325Z,5.91
2022-11-27T08:52:16.849Z,6.01
2022-11-27T08:55:22.061Z,6.01
2022-11-27T08:58:27.692Z,6.18
2022-11-27T09:01:34.179Z,6.16
2022-11-27T09:04:40.852Z,6.23
2022-11-27T09:07:46.828Z,6.40
2022-11-27T09:10:52.612Z,6.17
2022-11-27T09:14:00.146Z,6.25
2022-11-27T09:17:05.248Z,6.25
2022-11-27T09:20:11.349Z,6.33
2022-11-27T09:23:16.459Z,6.56
2022-11-27T09:26:24.221Z,6.58
2022-11-27T09:29:30.123Z,6.71
2022-11-27T09:32:35.878Z,6.81
2022-11-27T09:35:42.098Z,6.99
2022-11-27T09:38:48.623Z,7.19
2022-11-27T09:41:58.597Z,7.35
2022-11-27T09:45:07.633Z,7.35
2022-11-27T09:48:22.940Z,7.46
2022-11-27T09:51:35.475Z,7.63
2022-11-27T09:55:09.864Z,7.68
2022-11-27T09:58:24.520Z,7.69
2022-11-27T10:01:41.971Z,7.93
2022-11-27T10:05:12.304Z,7.94
2022-11-27T10:08:22.090Z,8.13
2022-11-27T10:11:48.127Z,8.21
2022-11-27T10:15:00.589Z,8.22
2022-11-27T10:18:47.130Z,8.32
2022-11-27T10:22:03.127Z,8.40
2022-11-27T10:25:14.329Z,8.45
2022-11-27T10:28:49.912Z,8.50
2022-11-27T10:32:00.408Z,8.71
2022-11-27T10:35:15.448Z,8.79
2022-11-27T10:38:24.627Z,8.96
2022-11-27T10:42:02.948Z,8.88
2022-11-27T10:45:20.387Z,8.94
2022-11-27T10:48:28.046Z,9.09
2022-11-27T10:51:37.559Z,9.15
2022-11-27T10:54:45.618Z,9.32
2022-11-27T10:58:25.816Z,9.38
2022-11-27T11:01:45.807Z,9.46
2022-11-27T11:05:09.173Z,9.63
2022-11-27T18:22:01.116Z,6.04
2022-11-27T18:25:07.624Z,5.72
2022-11-27T18:28:14.332Z,5.67
2022-11-27T18:31:21.132Z,5.86
2022-11-27T18:34:28.716Z,5.76
2022-11-27T18:37:39.100Z,5.76
2022-11-27T18:40:46.668Z,5.75
2022-11-27T18:43:53.217Z,5.80
2022-11-27T18:47:00.604Z,5.74
2022-11-27T18:50:08.418Z,5.70
2022-11-27T18:53:15.525Z,5.30
2022-11-27T18:56:25.470Z,5.52
2022-11-27T18:59:32.755Z,5.38
2022-11-27T19:02:40.385Z,5.31
2022-11-27T19:05:46.646Z,5.45
2022-11-27T19:08:53.372Z,5.44
2022-11-27T19:12:00.170Z,5.40
2022-11-27T19:15:07.400Z,5.29
2022-11-27T19:18:14.016Z,5.32
2022-11-27T19:21:24.645Z,5.26
2022-11-27T19:24:34.039Z,5.17
2022-11-27T19:27:40.396Z,5.24
2022-11-27T19:30:46.792Z,5.31
2022-11-27T19:33:54.866Z,5.23
2022-11-27T19:37:02.180Z,5.23
2022-11-27T19:40:09.181Z,5.19
2022-11-27T19:43:16.422Z,5.05
2022-11-27T19:46:26.581Z,4.99
2022-11-27T19:49:32.779Z,5.04
2022-11-27T19:52:38.820Z,4.89
2022-11-27T19:55:45.401Z,4.90
2022-11-27T19:58:53.381Z,5.01
2022-11-27T20:02:04.278Z,5.03
2022-11-27T20:05:10.796Z,4.89
2022-11-27T20:08:17.505Z,4.77
2022-11-27T20:11:28.620Z,4.88
2022-11-27T20:14:40.007Z,4.85
2022-11-27T20:17:46.957Z,4.86
2022-11-27T20:20:53.940Z,4.86
2022-11-27T20:24:02.096Z,4.76
2022-11-27T20:27:09.350Z,4.70
2022-11-27T20:30:16.127Z,4.75
2022-11-27T20:33:24.449Z,4.88
2022-11-27T20:36:33.181Z,4.98
2022-11-27T20:39:40.334Z,4.97
2022-11-27T20:42:46.980Z,4.77
2022-11-27T20:45:54.211Z,4.64
2022-11-27T20:49:01.463Z,4.65
2022-11-27T20:52:08.948Z,4.74
2022-11-27T20:55:15.773Z,4.78
2022-11-27T20:58:23.491Z,4.81
2022-11-27T21:01:35.014Z,4.75
2022-11-27T21:04:43.071Z,4.75
2022-11-27T21:07:50.028Z,4.66
2022-11-27T21:10:58.014Z,4.59
2022-11-27T21:14:07.650Z,4.67
2022-11-27T21:17:14.112Z,4.59
2022-11-27T21:20:21.363Z,4.60
2022-11-27T21:23:27.665Z,4.56
2022-11-27T21:26:34.643Z,4.63
2022-11-27T21:29:42.514Z,4.69
2022-11-27T21:32:49.567Z,4.59
2022-11-27T21:35:56.687Z,4.22
2022-11-27T21:39:07.143Z,4.34
2022-11-27T21:42:14.078Z,4.40
2022-11-27T21:45:19.897Z,4.42
2022-11-27T21:48:26.087Z,4.41
2022-11-27T21:51:32.667Z,4.40
2022-11-27T21:54:42.637Z,4.41
2022-11-27T21:57:48.720Z,4.32
2022-11-27T22:00:55.313Z,4.34
2022-11-27T22:04:01.188Z,4.41
2022-11-27T22:07:08.623Z,4.48
2022-11-27T22:10:14.869Z,4.40
2022-11-27T22:13:21.538Z,4.24
2022-11-27T22:16:29.932Z,4.17
2022-11-27T22:19:40.780Z,4.11
2022-11-27T22:22:47.822Z,4.16
2022-11-27T22:25:54.150Z,4.26
2022-11-27T22:29:00.618Z,4.11
2022-11-27T22:32:07.986Z,4.21
2022-11-27T22:35:14.853Z,4.30
2022-11-27T22:38:21.150Z,4.15
2022-11-27T22:41:29.493Z,3.78
2022-11-27T22:44:37.495Z,4.03
2022-11-27T22:47:44.208Z,3.99
2022-11-27T22:50:57.095Z,3.94
2022-11-27T22:54:06.510Z,4.06
2022-11-27T22:57:14.473Z,3.98
2022-11-27T23:00:21.054Z,3.96
2022-11-27T23:03:27.742Z,3.94
2022-11-27T23:06:34.260Z,3.85
2022-11-27T23:09:40.091Z,3.87
2022-11-27T23:12:46.501Z,3.87
2022-11-27T23:15:53.007Z,3.16
2022-11-27T23:18:59.296Z,3.33
2022-11-27T23:22:05.962Z,3.59
2022-11-27T23:25:12.335Z,3.81
2022-11-27T23:28:19.673Z,3.72
2022-11-27T23:31:30.426Z,3.80
2022-11-27T23:34:37.650Z,3.78
2022-11-27T23:37:44.128Z,3.57
2022-11-27T23:40:51.078Z,3.36
2022-11-27T23:43:58.591Z,3.30
2022-11-27T23:47:04.904Z,3.37
2022-11-27T23:50:11.704Z,3.60
2022-11-27T23:53:18.180Z,3.56
2022-11-27T23:56:27.170Z,3.54
2022-11-27T23:59:33.230Z,3.66
